Time;durP1;ratioP1;P1;durP2;ratioP2;P2;SDS_P1;SDS_P2;PMS_P1;PMS_P2;Temp;Humidity;BMP_temperature;BMP_pressure;BME280_temperature;BME280_humidity;BME280_pressure;Samples;Min_cycle;Max_cycle;Signal;HPM_P1;HPM_P2
2024/02/13 00:01:41;;;;;;;2.13;1.85;;;22.00;47.90;;;;;;10366754;28;20057;-53
2024/02/13 00:06:44;;;;;;;2.50;1.88;;;22.00;47.80;;;;;;10366014;28;20050;-55
2024/02/13 00:11:46;;;;;;;2.10;1.85;;;22.00;47.80;;;;;;10367129;28;20046;-53
2024/02/13 00:16:48;;;;;;;2.83;1.90;;;21.90;47.70;;;;;;10365811;28;20068;-52
2024/02/13 00:21:51;;;;;;;2.45;1.98;;;21.80;47.90;;;;;;10367122;28;20129;-54
2024/02/13 00:26:52;;;;;;;2.35;1.98;;;21.80;48.00;;;;;;10364945;28;20042;-53
2024/02/13 00:31:54;;;;;;;2.50;1.90;;;21.70;47.90;;;;;;10364735;28;20046;-55
2024/02/13 00:36:58;;;;;;;2.53;1.88;;;21.70;47.90;;;;;;10366272;28;20133;-50
2024/02/13 00:42:02;;;;;;;2.22;1.55;;;21.70;47.90;;;;;;10369939;28;20132;-54
2024/02/13 00:47:04;;;;;;;1.75;1.50;;;21.70;47.90;;;;;;10360042;28;20058;-53
2024/02/13 00:52:07;;;;;;;1.88;1.65;;;21.60;47.70;;;;;;10354074;28;20564;-55
2024/02/13 00:57:09;;;;;;;2.90;1.88;;;21.60;47.80;;;;;;10353629;28;20118;-56
2024/02/13 01:02:10;;;;;;;1.90;1.40;;;21.50;47.80;;;;;;10350582;28;20052;-55
2024/02/13 01:07:13;;;;;;;2.03;1.70;;;21.50;47.80;;;;;;10354621;28;20046;-55
2024/02/13 01:12:15;;;;;;;1.60;1.50;;;21.40;47.70;;;;;;10355795;28;20466;-54
2024/02/13 01:17:16;;;;;;;2.10;1.50;;;21.40;47.70;;;;;;10354041;28;20396;-54
2024/02/13 01:22:19;;;;;;;1.70;1.58;;;21.40;47.80;;;;;;10347992;28;20046;-55
2024/02/13 01:27:21;;;;;;;1.73;1.40;;;21.30;47.70;;;;;;10351660;28;20145;-55
2024/02/13 01:32:24;;;;;;;2.05;1.60;;;21.30;47.70;;;;;;10355134;28;20082;-54
2024/02/13 01:37:27;;;;;;;2.40;1.60;;;21.30;47.80;;;;;;10351437;28;20496;-55
2024/02/13 01:42:28;;;;;;;2.65;1.65;;;21.20;47.90;;;;;;10360734;28;20065;-54
2024/02/13 01:47:30;;;;;;;1.83;1.52;;;21.10;48.00;;;;;;10360676;28;20064;-56
2024/02/13 01:52:33;;;;;;;1.92;1.42;;;21.10;47.90;;;;;;10367370;28;20058;-55
2024/02/13 01:57:36;;;;;;;2.15;1.40;;;21.00;48.00;;;;;;10363382;28;20136;-57
2024/02/13 02:02:37;;;;;;;2.65;1.42;;;21.00;48.00;;;;;;10360806;28;20424;-56
2024/02/13 02:07:42;;;;;;;2.05;1.60;;;21.00;48.00;;;;;;10359577;28;20054;-52
2024/02/13 02:12:49;;;;;;;1.58;1.40;;;21.00;47.90;;;;;;10364223;28;20057;-53
2024/02/13 02:17:52;;;;;;;2.35;1.30;;;20.90;47.90;;;;;;10366269;28;20060;-56
2024/02/13 02:22:55;;;;;;;1.50;1.40;;;20.80;48.10;;;;;;10357773;28;20056;-52
2024/02/13 02:27:58;;;;;;;1.42;1.30;;;20.80;48.30;;;;;;10355463;28;20050;-56
2024/02/13 02:33:00;;;;;;;1.90;1.45;;;20.80;48.00;;;;;;10356913;28;20061;-57
2024/02/13 02:38:02;;;;;;;1.70;1.42;;;20.80;48.10;;;;;;10351795;28;20059;-54
2024/02/13 02:43:05;;;;;;;2.63;1.45;;;20.80;48.00;;;;;;10354643;28;20058;-55
2024/02/13 02:48:08;;;;;;;1.50;1.20;;;20.70;48.20;;;;;;10359798;28;20053;-53
2024/02/13 02:53:09;;;;;;;1.80;1.40;;;20.60;48.10;;;;;;10360057;28;20073;-54
2024/02/13 02:58:13;;;;;;;2.25;1.30;;;20.60;47.90;;;;;;10365043;28;20132;-56
2024/02/13 03:03:15;;;;;;;1.33;1.20;;;20.60;48.00;;;;;;10364854;28;20652;-57
2024/02/13 03:08:16;;;;;;;1.30;1.20;;;20.50;48.00;;;;;;10362690;28;20173;-57
2024/02/13 03:13:21;;;;;;;1.35;1.25;;;20.50;47.80;;;;;;10356930;28;20046;-55
2024/02/13 03:18:24;;;;;;;1.40;1.30;;;20.50;47.90;;;;;;10357133;28;20141;-55
2024/02/13 03:23:25;;;;;;;1.58;1.20;;;20.50;47.80;;;;;;10365801;28;20064;-54
2024/02/13 03:28:28;;;;;;;1.23;1.13;;;20.50;47.90;;;;;;10363700;28;20046;-56
2024/02/13 03:33:30;;;;;;;1.60;1.20;;;20.40;47.80;;;;;;10357711;28;20050;-56
2024/02/13 03:38:32;;;;;;;2.22;1.30;;;20.40;47.90;;;;;;10355047;28;20133;-56
2024/02/13 03:43:36;;;;;;;1.38;1.23;;;20.30;48.00;;;;;;10347469;28;20150;-55
2024/02/13 03:48:38;;;;;;;1.45;1.17;;;20.30;48.10;;;;;;10347654;28;20144;-55
2024/02/13 03:53:39;;;;;;;1.63;1.00;;;20.30;47.80;;;;;;10349967;28;20148;-55
2024/02/13 03:58:42;;;;;;;1.13;1.02;;;20.30;47.90;;;;;;10354995;28;20049;-57
2024/02/13 04:03:44;;;;;;;1.30;1.20;;;20.30;47.90;;;;;;10356500;28;20042;-56
2024/02/13 04:08:45;;;;;;;1.30;1.00;;;20.40;47.90;;;;;;10359220;28;20140;-55
2024/02/13 04:13:48;;;;;;;1.13;0.90;;;20.20;48.70;;;;;;10361596;28;20042;-56
2024/02/13 04:18:50;;;;;;;1.20;1.10;;;20.40;48.50;;;;;;10358789;28;20054;-54
2024/02/13 04:23:52;;;;;;;1.58;1.00;;;20.70;47.90;;;;;;10361685;28;20048;-57
2024/02/13 04:28:55;;;;;;;1.27;0.93;;;21.10;47.30;;;;;;10359020;28;20096;-58
2024/02/13 04:33:56;;;;;;;1.40;0.90;;;21.20;47.10;;;;;;10349509;28;20133;-57
2024/02/13 04:38:58;;;;;;;1.80;1.13;;;21.20;47.20;;;;;;10362281;28;20056;-55
2024/02/13 04:44:02;;;;;;;1.23;0.90;;;21.70;46.30;;;;;;10358577;28;20046;-57
2024/02/13 04:49:05;;;;;;;1.20;1.10;;;21.30;47.00;;;;;;10352996;28;20076;-54
2024/02/13 04:54:06;;;;;;;1.00;0.90;;;21.30;47.00;;;;;;10348709;28;20038;-57
2024/02/13 04:59:14;;;;;;;1.30;0.90;;;21.00;47.30;;;;;;10346026;28;20141;-53
2024/02/13 05:09:35;;;;;;;1.60;1.13;;;21.00;47.50;;;;;;10351826;28;20038;-54
2024/02/13 05:14:38;;;;;;;1.08;0.90;;;21.00;47.60;;;;;;10354059;28;20041;-56
2024/02/13 05:19:40;;;;;;;0.80;0.80;;;21.10;47.40;;;;;;10358138;28;20056;-58
2024/02/13 05:24:41;;;;;;;0.80;0.73;;;21.20;47.20;;;;;;10363525;28;20145;-58
2024/02/13 05:29:44;;;;;;;1.45;0.80;;;21.20;47.20;;;;;;10364865;28;20478;-55
2024/02/13 05:34:46;;;;;;;1.08;0.80;;;21.50;47.00;;;;;;10364505;28;20135;-57
2024/02/13 05:39:50;;;;;;;0.70;0.70;;;21.30;47.30;;;;;;10322813;28;20058;-57
2024/02/13 05:44:53;;;;;;;1.05;0.80;;;21.40;47.20;;;;;;10362714;28;20046;-57
2024/02/13 05:49:55;;;;;;;2.25;1.00;;;21.50;47.30;;;;;;10358241;28;20042;-57
2024/02/13 05:54:56;;;;;;;3.78;0.80;;;21.40;47.60;;;;;;10362596;28;20056;-57
2024/02/13 05:59:59;;;;;;;1.27;0.88;;;21.50;47.70;;;;;;10362572;28;20056;-57
2024/02/13 06:05:01;;;;;;;0.80;0.80;;;21.60;48.40;;;;;;10358241;28;20056;-52
2024/02/13 06:10:03;;;;;;;1.52;0.90;;;21.90;47.90;;;;;;10359361;28;20483;-53
2024/02/13 06:15:06;;;;;;;1.95;0.70;;;22.00;47.80;;;;;;10356295;28;20068;-58
2024/02/13 06:20:12;;;;;;;6.72;0.90;;;22.00;48.10;;;;;;10358847;28;20060;-56
2024/02/13 06:25:14;;;;;;;2.20;0.80;;;22.00;48.60;;;;;;10363159;28;20045;-58
2024/02/13 06:30:18;;;;;;;2.65;1.10;;;22.20;47.90;;;;;;10362290;28;20053;-59
2024/02/13 06:35:19;;;;;;;12.93;2.60;;;22.30;47.60;;;;;;10361725;28;20046;-57
2024/02/13 06:40:21;;;;;;;13.27;2.50;;;22.30;48.40;;;;;;10363697;28;20058;-55
2024/02/13 06:45:25;;;;;;;13.27;2.70;;;22.20;48.40;;;;;;10363506;28;20058;-51
2024/02/13 06:50:27;;;;;;;11.90;2.38;;;22.20;50.70;;;;;;10362519;28;20049;-54
2024/02/13 06:55:29;;;;;;;20.02;3.58;;;22.20;50.40;;;;;;10357850;28;20061;-51
2024/02/13 07:00:32;;;;;;;29.08;4.10;;;22.50;51.20;;;;;;10357534;28;20056;-55
2024/02/13 07:05:33;;;;;;;24.58;4.53;;;22.50;51.00;;;;;;10360406;28;20045;-54
2024/02/13 07:10:35;;;;;;;15.93;4.35;;;22.30;51.50;;;;;;10357070;28;20077;-57
2024/02/13 07:15:38;;;;;;;28.52;5.25;;;22.30;51.40;;;;;;10361510;28;20044;-55
2024/02/13 07:20:40;;;;;;;14.77;3.80;;;22.10;51.10;;;;;;10360413;28;20077;-57
2024/02/13 07:25:41;;;;;;;15.55;3.92;;;22.00;50.00;;;;;;10359137;28;20157;-56
2024/02/13 07:30:44;;;;;;;15.20;3.83;;;21.90;48.60;;;;;;10352104;28;20043;-57
2024/02/13 07:35:46;;;;;;;11.18;3.40;;;21.80;48.60;;;;;;10352207;28;20042;-53
2024/02/13 07:40:48;;;;;;;10.82;3.70;;;21.80;48.60;;;;;;10360842;28;20058;-55
2024/02/13 07:45:50;;;;;;;7.07;3.10;;;21.80;47.80;;;;;;10353823;28;20046;-53
2024/02/13 07:50:53;;;;;;;7.63;3.13;;;21.70;47.60;;;;;;10352594;28;20052;-57
2024/02/13 07:55:55;;;;;;;7.65;3.30;;;21.60;47.30;;;;;;10356360;28;20500;-57
2024/02/13 08:00:58;;;;;;;5.93;2.85;;;21.50;46.20;;;;;;10357247;28;20464;-55
2024/02/13 08:06:01;;;;;;;9.35;3.55;;;21.60;46.10;;;;;;10352408;28;20489;-55
2024/02/13 08:11:02;;;;;;;6.00;3.22;;;21.50;45.40;;;;;;10351046;28;20048;-56
2024/02/13 08:16:07;;;;;;;5.28;2.85;;;21.50;45.20;;;;;;10345767;28;20416;-58
2024/02/13 08:21:08;;;;;;;6.25;3.13;;;21.50;45.30;;;;;;10345346;28;20039;-55
2024/02/13 08:26:10;;;;;;;6.30;3.10;;;21.60;44.20;;;;;;10342068;28;20069;-54
2024/02/13 08:31:13;;;;;;;7.25;3.55;;;21.50;44.30;;;;;;10346129;28;20378;-56
2024/02/13 08:36:14;;;;;;;5.10;3.63;;;21.40;43.50;;;;;;10351012;28;20053;-57
2024/02/13 08:41:16;;;;;;;6.15;3.75;;;21.40;43.30;;;;;;10353137;28;20041;-57
2024/02/13 08:46:23;;;;;;;7.43;3.10;;;21.40;43.10;;;;;;10353188;28;20513;-55
2024/02/13 08:51:26;;;;;;;4.45;3.22;;;21.40;43.40;;;;;;10353974;28;20389;-54
2024/02/13 08:56:28;;;;;;;5.22;2.92;;;21.30;43.70;;;;;;10359487;28;20053;-53
2024/02/13 09:01:32;;;;;;;6.88;3.13;;;21.30;42.60;;;;;;10350147;28;20042;-57
2024/02/13 09:06:34;;;;;;;7.05;3.28;;;21.30;42.20;;;;;;10352679;28;20049;-56
2024/02/13 09:11:36;;;;;;;6.55;3.10;;;21.30;42.10;;;;;;10357101;28;20073;-56
2024/02/13 09:16:39;;;;;;;7.22;3.80;;;21.30;42.20;;;;;;10354338;28;20118;-56
2024/02/13 09:21:43;;;;;;;5.20;2.67;;;21.30;41.80;;;;;;10351432;28;20053;-54
2024/02/13 09:26:44;;;;;;;3.83;2.75;;;21.40;41.90;;;;;;10344061;28;20049;-59
2024/02/13 09:31:47;;;;;;;5.53;2.92;;;21.30;41.80;;;;;;10342999;28;20067;-55
2024/02/13 09:36:49;;;;;;;6.93;2.90;;;21.30;41.70;;;;;;10349888;28;20038;-57
2024/02/13 09:41:51;;;;;;;6.03;2.97;;;21.30;41.70;;;;;;10351777;28;20038;-56
2024/02/13 09:46:54;;;;;;;4.13;2.72;;;21.30;41.80;;;;;;10349577;28;20045;-56
2024/02/13 09:51:57;;;;;;;5.05;2.45;;;21.30;41.80;;;;;;10350318;28;20034;-55
2024/02/13 09:56:59;;;;;;;6.30;2.88;;;21.40;41.90;;;;;;10352211;28;20496;-57
2024/02/13 10:02:04;;;;;;;5.43;2.58;;;21.30;41.80;;;;;;10355193;28;20041;-57
2024/02/13 10:07:06;;;;;;;6.03;2.90;;;21.40;41.50;;;;;;10355205;28;20052;-52
2024/02/13 10:12:12;;;;;;;4.18;3.05;;;21.40;41.20;;;;;;10362658;28;20125;-56
2024/02/13 10:17:15;;;;;;;7.82;3.22;;;21.30;41.10;;;;;;10363652;28;20468;-55
2024/02/13 10:22:18;;;;;;;6.90;2.97;;;21.30;41.20;;;;;;10365734;28;20105;-56
2024/02/13 10:27:20;;;;;;;7.60;3.33;;;21.20;40.50;;;;;;10360226;28;20042;-55
2024/02/13 10:32:23;;;;;;;6.18;3.58;;;21.30;40.60;;;;;;10361248;28;20038;-56
2024/02/13 10:37:24;;;;;;;4.38;2.80;;;21.10;40.30;;;;;;10355939;28;20042;-57
2024/02/13 10:42:26;;;;;;;6.82;3.15;;;21.10;40.30;;;;;;10353488;28;20041;-55
2024/02/13 10:47:29;;;;;;;5.30;3.47;;;21.20;39.70;;;;;;10360590;28;20054;-56
2024/02/13 10:52:32;;;;;;;6.25;3.13;;;21.20;39.90;;;;;;10358197;28;20050;-57
2024/02/13 10:57:34;;;;;;;6.15;3.60;;;21.20;39.60;;;;;;10357322;28;20057;-52
2024/02/13 11:02:37;;;;;;;6.35;3.63;;;21.20;39.60;;;;;;10354393;28;20049;-57
2024/02/13 11:07:39;;;;;;;6.07;3.47;;;21.10;39.50;;;;;;10351604;28;20050;-58
2024/02/13 11:12:42;;;;;;;8.18;3.65;;;21.10;39.60;;;;;;10359523;28;20053;-53
2024/02/13 11:17:53;;;;;;;4.97;2.95;;;21.20;39.90;;;;;;10357735;28;20056;-54
2024/02/13 11:22:56;;;;;;;4.78;3.10;;;21.20;39.80;;;;;;10360138;28;20526;-54
2024/02/13 11:28:02;;;;;;;5.68;3.45;;;21.10;39.90;;;;;;10364391;28;20060;-56
2024/02/13 11:33:06;;;;;;;5.28;3.67;;;21.20;39.80;;;;;;10358004;28;20124;-52
2024/02/13 11:38:12;;;;;;;6.22;3.53;;;21.20;39.20;;;;;;10354840;28;20061;-56
2024/02/13 11:43:24;;;;;;;5.72;3.80;;;21.20;39.10;;;;;;10356604;28;20042;-55
2024/02/13 11:48:27;;;;;;;5.78;3.45;;;21.00;39.00;;;;;;10353053;28;20046;-56
2024/02/13 11:53:30;;;;;;;6.78;3.50;;;21.20;38.80;;;;;;10356931;28;20108;-56
2024/02/13 11:58:31;;;;;;;5.10;3.20;;;21.10;38.90;;;;;;10357945;28;20046;-55
2024/02/13 12:03:34;;;;;;;5.60;3.35;;;21.10;38.70;;;;;;10354767;28;20048;-55
2024/02/13 12:08:40;;;;;;;4.55;3.00;;;21.00;38.70;;;;;;10352929;28;20497;-58
2024/02/13 12:13:42;;;;;;;6.32;3.38;;;21.10;38.90;;;;;;10351966;28;20042;-57
2024/02/13 12:18:45;;;;;;;6.20;3.65;;;21.10;38.90;;;;;;10346110;28;20144;-57
2024/02/13 12:23:47;;;;;;;8.18;3.60;;;21.00;39.30;;;;;;10350816;28;20069;-57
2024/02/13 12:28:54;;;;;;;7.85;3.97;;;20.90;39.40;;;;;;10354034;28;20049;-56
2024/02/13 12:34:04;;;;;;;7.13;3.22;;;20.90;40.20;;;;;;10357171;28;20515;-56
2024/02/13 12:39:16;;;;;;;6.57;3.30;;;20.90;39.80;;;;;;10360669;28;20137;-57
2024/02/13 12:44:20;;;;;;;5.75;3.55;;;20.90;39.80;;;;;;10359446;28;20849;-53
2024/02/13 12:49:23;;;;;;;7.82;3.95;;;21.00;39.90;;;;;;10353174;28;20125;-58
2024/02/13 12:54:24;;;;;;;6.45;3.10;;;20.90;39.90;;;;;;10349293;28;20065;-54
2024/02/13 12:59:27;;;;;;;9.00;3.35;;;21.00;40.00;;;;;;10348624;28;20042;-56
2024/02/13 13:04:31;;;;;;;4.88;3.08;;;21.00;39.90;;;;;;10361541;28;20041;-58
2024/02/13 13:09:34;;;;;;;5.68;3.13;;;21.00;40.00;;;;;;10359585;28;20050;-55
2024/02/13 13:14:36;;;;;;;5.18;2.92;;;21.00;40.00;;;;;;10356954;28;20061;-56
2024/02/13 13:19:39;;;;;;;6.47;3.17;;;21.00;40.20;;;;;;10351968;28;20463;-57
2024/02/13 13:24:41;;;;;;;5.10;3.00;;;20.90;40.20;;;;;;10345363;28;20053;-56
2024/02/13 13:29:44;;;;;;;8.13;3.17;;;21.10;40.00;;;;;;10348331;28;20135;-55
2024/02/13 13:34:48;;;;;;;6.35;2.95;;;21.00;40.20;;;;;;10345835;28;20046;-54
2024/02/13 13:39:50;;;;;;;6.60;2.92;;;20.90;40.20;;;;;;10349503;28;20061;-55
2024/02/13 13:44:51;;;;;;;4.57;2.45;;;21.20;40.20;;;;;;10359319;28;20054;-58
2024/02/13 13:49:55;;;;;;;5.13;2.63;;;21.50;40.10;;;;;;10362833;28;20060;-55
2024/02/13 13:54:57;;;;;;;4.68;2.70;;;21.40;39.90;;;;;;10365986;28;20483;-56
2024/02/13 13:59:58;;;;;;;4.68;2.53;;;21.40;40.10;;;;;;10359508;28;20156;-54
2024/02/13 14:05:01;;;;;;;4.70;2.85;;;21.20;40.60;;;;;;10358041;28;20130;-57
2024/02/13 14:10:03;;;;;;;6.22;2.45;;;21.20;40.60;;;;;;10357574;28;20052;-53
2024/02/13 14:15:06;;;;;;;3.33;2.25;;;21.10;40.80;;;;;;10360926;28;20140;-52
2024/02/13 14:20:14;;;;;;;6.63;2.20;;;21.10;40.90;;;;;;10366863;28;20053;-57
2024/02/13 14:25:17;;;;;;;3.70;2.50;;;21.20;40.80;;;;;;10365304;28;20043;-55
2024/02/13 14:30:19;;;;;;;4.00;2.38;;;21.30;40.10;;;;;;10361700;28;20061;-57
2024/02/13 14:35:22;;;;;;;3.42;2.03;;;21.60;39.80;;;;;;10362939;28;20049;-52
2024/02/13 14:40:25;;;;;;;2.83;1.40;;;21.80;39.60;;;;;;10353226;28;20045;-59
2024/02/13 14:45:26;;;;;;;3.40;1.48;;;21.80;40.10;;;;;;10354898;28;20037;-62
2024/02/13 14:50:29;;;;;;;3.42;1.33;;;21.80;40.30;;;;;;10361426;28;20070;-57
2024/02/13 14:55:31;;;;;;;6.28;2.25;;;22.00;40.60;;;;;;10362864;28;20053;-54
2024/02/13 15:00:33;;;;;;;8.80;3.95;;;21.90;40.90;;;;;;10366549;28;20104;-57
2024/02/13 15:05:38;;;;;;;5.28;3.58;;;22.00;41.30;;;;;;10367417;28;20133;-55
2024/02/13 15:10:40;;;;;;;5.95;2.65;;;21.90;41.00;;;;;;10367338;28;21244;-58
2024/02/13 15:15:44;;;;;;;5.95;3.05;;;21.80;40.90;;;;;;10370965;28;20042;-56
2024/02/13 15:20:47;;;;;;;6.25;2.72;;;21.90;40.70;;;;;;10370400;28;20060;-58
2024/02/13 15:25:49;;;;;;;5.70;2.55;;;21.90;40.50;;;;;;10363415;28;20049;-57
2024/02/13 15:30:52;;;;;;;4.95;2.50;;;22.00;40.40;;;;;;10364192;28;20049;-52
2024/02/13 15:36:05;;;;;;;4.90;2.40;;;22.00;40.40;;;;;;10366992;28;20419;-54
2024/02/13 15:51:47;;;;;;;4.30;2.33;;;22.10;40.00;;;;;;10368413;28;20049;-58
2024/02/13 15:56:51;;;;;;;4.35;2.35;;;22.10;40.40;;;;;;10357996;28;20500;-56
2024/02/13 16:01:53;;;;;;;4.32;2.17;;;22.00;40.30;;;;;;10369644;28;20728;-57
2024/02/13 16:06:57;;;;;;;4.95;1.80;;;22.10;40.30;;;;;;10362341;28;20496;-55
2024/02/13 16:12:00;;;;;;;7.03;2.08;;;22.10;40.50;;;;;;10368628;28;20049;-58
2024/02/13 16:17:03;;;;;;;3.97;1.50;;;21.90;42.70;;;;;;10360762;28;20045;-55
2024/02/13 16:22:06;;;;;;;7.90;1.50;;;22.10;43.40;;;;;;10366298;28;20049;-56
2024/02/13 16:27:08;;;;;;;3.72;1.33;;;22.20;43.70;;;;;;10364381;28;20041;-59
2024/02/13 16:32:15;;;;;;;4.55;1.30;;;22.30;44.00;;;;;;10357033;28;20128;-56
2024/02/13 16:37:19;;;;;;;4.72;1.27;;;22.40;44.30;;;;;;10356218;28;20411;-57
2024/02/13 16:42:20;;;;;;;5.38;1.27;;;22.40;44.70;;;;;;10361596;28;20133;-58
2024/02/13 16:47:22;;;;;;;4.63;1.23;;;22.30;45.20;;;;;;10357307;28;20060;-53
2024/02/13 16:52:27;;;;;;;4.45;1.25;;;22.40;45.30;;;;;;10361649;28;20049;-60
2024/02/13 16:57:28;;;;;;;4.88;1.20;;;22.60;45.60;;;;;;10352352;28;20056;-60
2024/02/13 17:02:30;;;;;;;3.17;1.13;;;22.60;46.00;;;;;;10353789;28;20050;-58
2024/02/13 17:07:33;;;;;;;6.68;1.10;;;22.70;46.30;;;;;;10358147;28;20049;-60
2024/02/13 17:12:35;;;;;;;15.48;1.30;;;22.50;45.10;;;;;;10357765;28;20046;-63
2024/02/13 17:17:38;;;;;;;5.25;1.20;;;22.40;45.60;;;;;;10358565;28;20044;-58
2024/02/13 17:22:42;;;;;;;5.28;1.05;;;22.40;45.50;;;;;;10359272;28;20519;-59
2024/02/13 17:27:43;;;;;;;5.68;1.02;;;22.50;45.80;;;;;;10352398;28;20132;-58
2024/02/13 17:32:45;;;;;;;1.65;0.95;;;22.70;46.10;;;;;;10355906;28;20057;-56
2024/02/13 17:37:48;;;;;;;9.70;1.13;;;22.80;46.30;;;;;;10362818;28;20053;-58
2024/02/13 17:42:50;;;;;;;1.95;0.82;;;22.80;45.20;;;;;;10354127;28;20048;-56
2024/02/13 17:47:51;;;;;;;2.80;1.08;;;22.90;44.90;;;;;;10359433;28;20503;-60
2024/02/13 17:52:54;;;;;;;2.90;0.88;;;22.80;44.80;;;;;;10353153;28;20508;-56
2024/02/13 17:57:57;;;;;;;3.35;1.08;;;22.80;44.70;;;;;;10349570;28;20123;-56
2024/02/13 18:02:58;;;;;;;3.72;1.10;;;22.80;44.80;;;;;;10351652;28;20045;-57
2024/02/13 18:08:03;;;;;;;7.07;1.05;;;22.80;44.80;;;;;;10355333;28;20038;-60
2024/02/13 18:13:10;;;;;;;5.60;1.13;;;22.80;44.50;;;;;;10356560;28;20135;-58
2024/02/13 18:18:12;;;;;;;2.63;1.10;;;22.80;44.00;;;;;;10346008;28;20129;-59
2024/02/13 18:23:16;;;;;;;6.07;1.10;;;22.70;44.20;;;;;;10350974;28;20120;-58
2024/02/13 18:28:17;;;;;;;2.42;0.95;;;22.70;44.20;;;;;;10349402;28;20096;-57
2024/02/13 18:33:19;;;;;;;2.80;0.95;;;22.70;44.20;;;;;;10357360;28;20056;-59
2024/02/13 18:38:23;;;;;;;1.65;0.85;;;22.80;44.10;;;;;;10359020;28;20046;-58
2024/02/13 18:43:25;;;;;;;1.58;0.75;;;22.80;44.00;;;;;;10357074;28;20046;-57
2024/02/13 18:48:31;;;;;;;2.13;0.93;;;22.70;44.00;;;;;;10360067;28;20096;-58
2024/02/13 18:53:34;;;;;;;2.33;0.90;;;22.80;43.90;;;;;;10358299;28;20050;-60
2024/02/13 18:58:38;;;;;;;1.80;0.90;;;22.80;43.90;;;;;;10354263;28;20555;-56
2024/02/13 19:03:40;;;;;;;3.40;1.00;;;22.90;43.70;;;;;;10353350;28;20141;-58
2024/02/13 19:08:43;;;;;;;1.20;0.88;;;22.80;43.70;;;;;;10352173;28;20060;-57
2024/02/13 19:13:45;;;;;;;5.25;0.90;;;22.80;43.80;;;;;;10358469;28;20065;-59
2024/02/13 19:18:48;;;;;;;4.45;1.23;;;22.90;42.90;;;;;;10357748;28;20050;-58
2024/02/13 19:23:51;;;;;;;2.33;1.10;;;22.90;43.10;;;;;;10358523;28;20045;-58
2024/02/13 19:28:53;;;;;;;3.70;0.90;;;23.00;43.00;;;;;;10359453;28;20046;-57
2024/02/13 19:33:54;;;;;;;3.25;0.90;;;23.00;43.30;;;;;;10358037;28;20042;-58
2024/02/13 19:38:58;;;;;;;1.58;0.90;;;23.30;42.70;;;;;;10360241;28;20052;-56
2024/02/13 19:44:00;;;;;;;1.88;1.00;;;23.40;42.50;;;;;;10363334;28;20077;-56
2024/02/13 19:49:02;;;;;;;4.13;0.95;;;23.40;43.00;;;;;;10361249;28;20049;-57
2024/02/13 19:54:06;;;;;;;5.35;1.00;;;23.50;42.70;;;;;;10361882;28;20062;-57
2024/02/13 19:59:08;;;;;;;4.65;2.10;;;23.40;42.90;;;;;;10360513;28;20045;-56
2024/02/13 20:04:09;;;;;;;77.43;41.88;;;23.40;43.50;;;;;;10361240;28;20045;-59
2024/02/13 20:09:12;;;;;;;111.35;60.92;;;23.20;44.30;;;;;;10359361;28;20050;-58
2024/02/13 20:14:14;;;;;;;104.82;60.25;;;23.30;44.80;;;;;;10356982;28;20039;-58
2024/02/13 20:19:16;;;;;;;91.07;52.83;;;23.30;44.60;;;;;;10352836;28;20574;-59
2024/02/13 20:24:19;;;;;;;88.57;51.05;;;23.30;44.60;;;;;;10354596;28;20081;-60
2024/02/13 20:29:21;;;;;;;82.80;48.45;;;23.30;44.70;;;;;;10352416;28;20046;-59
2024/02/13 20:34:22;;;;;;;73.57;44.22;;;23.30;44.80;;;;;;10356469;28;20440;-59
2024/02/13 20:39:25;;;;;;;59.90;34.75;;;23.30;44.90;;;;;;10351667;28;20046;-59
2024/02/13 20:44:27;;;;;;;55.58;31.70;;;23.20;45.00;;;;;;10351672;28;20764;-59
2024/02/13 20:49:30;;;;;;;52.78;30.88;;;23.00;45.70;;;;;;10355411;28;20078;-59
2024/02/13 20:54:33;;;;;;;42.97;27.20;;;23.00;45.60;;;;;;10360271;28;20049;-57
2024/02/13 20:59:35;;;;;;;37.67;25.50;;;23.00;45.70;;;;;;10356371;28;20061;-59
2024/02/13 21:04:36;;;;;;;41.72;23.63;;;23.10;45.90;;;;;;10355908;28;20068;-60
2024/02/13 21:09:40;;;;;;;38.80;22.13;;;23.20;45.30;;;;;;10356859;28;20046;-59
2024/02/13 21:14:41;;;;;;;37.00;22.25;;;23.00;45.20;;;;;;10351212;28;20477;-59
2024/02/13 21:19:43;;;;;;;32.97;21.83;;;22.80;45.50;;;;;;10357108;28;20069;-58
2024/02/13 21:24:49;;;;;;;34.92;20.63;;;22.70;45.50;;;;;;10352569;28;20066;-56
2024/02/13 21:29:51;;;;;;;33.63;20.35;;;22.70;45.20;;;;;;10348912;28;20053;-59
2024/02/13 21:34:52;;;;;;;32.42;20.20;;;22.80;45.00;;;;;;10355932;28;20053;-61
2024/02/13 21:39:55;;;;;;;28.27;18.95;;;22.60;45.00;;;;;;10356815;28;20139;-60
2024/02/13 21:44:57;;;;;;;29.50;18.95;;;22.60;44.70;;;;;;10349744;28;20057;-59
2024/02/13 21:49:59;;;;;;;27.38;19.30;;;22.60;44.60;;;;;;10350264;28;20051;-57
2024/02/13 21:55:02;;;;;;;29.13;18.45;;;22.50;44.70;;;;;;10350584;28;20514;-58
2024/02/13 22:00:06;;;;;;;26.55;17.65;;;22.30;44.90;;;;;;10353073;28;20739;-59
2024/02/13 22:05:08;;;;;;;24.40;16.92;;;22.30;44.90;;;;;;10357430;28;20049;-59
2024/02/13 22:10:11;;;;;;;26.20;16.92;;;22.20;44.80;;;;;;10357041;28;20093;-60
2024/02/13 22:15:17;;;;;;;23.90;15.68;;;22.20;44.80;;;;;;10362337;28;20053;-58
2024/02/13 22:20:19;;;;;;;21.88;15.65;;;22.00;45.20;;;;;;10366468;28;20136;-60
2024/02/13 22:25:22;;;;;;;22.98;14.88;;;21.90;45.30;;;;;;10362649;28;20073;-58
2024/02/13 22:30:23;;;;;;;19.58;14.68;;;21.90;45.40;;;;;;10362039;28;20060;-59
2024/02/13 22:35:25;;;;;;;19.48;14.20;;;21.80;45.30;;;;;;10357718;28;20049;-58
2024/02/13 22:40:29;;;;;;;19.42;14.23;;;21.90;45.00;;;;;;10358974;28;20052;-58
2024/02/13 22:45:31;;;;;;;21.20;13.85;;;21.80;45.00;;;;;;10366412;28;20104;-60
2024/02/13 22:50:32;;;;;;;22.42;13.90;;;21.90;45.00;;;;;;10363311;28;20054;-59
2024/02/13 22:55:35;;;;;;;17.88;12.80;;;21.80;44.90;;;;;;10361737;28;20054;-59
2024/02/13 23:00:49;;;;;;;19.27;13.10;;;21.70;45.70;;;;;;10356389;28;20058;-59
2024/02/13 23:05:53;;;;;;;18.35;12.63;;;21.70;45.20;;;;;;10352340;28;20129;-59
2024/02/13 23:10:56;;;;;;;16.50;11.93;;;21.70;45.30;;;;;;10352240;28;20411;-59
2024/02/13 23:15:58;;;;;;;19.40;12.68;;;21.60;45.30;;;;;;10359906;28;20057;-59
2024/02/13 23:20:59;;;;;;;17.42;12.05;;;21.60;45.10;;;;;;10359691;28;20057;-59
2024/02/13 23:26:02;;;;;;;17.70;12.07;;;21.50;45.40;;;;;;10359866;28;20061;-59
2024/02/13 23:31:05;;;;;;;15.50;11.38;;;21.40;45.50;;;;;;10358347;28;20370;-60
2024/02/13 23:36:08;;;;;;;14.85;11.48;;;21.30;45.60;;;;;;10364236;28;20121;-59
2024/02/13 23:41:11;;;;;;;14.85;10.70;;;21.30;45.60;;;;;;10352363;28;20047;-59
2024/02/13 23:46:13;;;;;;;15.80;10.55;;;21.30;45.60;;;;;;10350156;28;20050;-58
2024/02/13 23:51:15;;;;;;;15.63;10.27;;;21.10;45.80;;;;;;10353998;28;20056;-56
2024/02/13 23:56:18;;;;;;;13.27;9.98;;;21.00;46.00;;;;;;10359489;28;20459;-58
